createdAt,value
2016-12-31T00:00:05.579Z,25.45
2016-12-31T00:01:16.766Z,25.43
2016-12-31T00:01:44.866Z,25.41
2016-12-31T00:02:13.026Z,25.48
2016-12-31T00:02:41.234Z,25.48
2016-12-31T00:03:09.550Z,25.38
2016-12-31T00:03:37.790Z,25.4
2016-12-31T00:04:06.015Z,25.48
2016-12-31T00:04:34.172Z,25.45
2016-12-31T00:05:02.491Z,25.46
2016-12-31T00:05:30.612Z,25.49
2016-12-31T00:05:58.781Z,25.48
2016-12-31T00:07:10.918Z,25.45
2016-12-31T00:07:39.109Z,25.46
2016-12-31T00:08:07.458Z,25.45
2016-12-31T00:08:35.600Z,25.43
2016-12-31T00:09:03.827Z,25.46
2016-12-31T00:09:32.154Z,25.38
2016-12-31T00:10:00.264Z,25.46
2016-12-31T00:10:28.424Z,25.41
2016-12-31T00:10:56.654Z,25.41
2016-12-31T00:11:24.865Z,25.33
2016-12-31T00:11:53.138Z,25.37
2016-12-31T00:13:04.420Z,25.45
2016-12-31T00:13:32.608Z,25.36
2016-12-31T00:14:00.862Z,25.36
2016-12-31T00:14:29.062Z,25.4
2016-12-31T00:14:57.200Z,25.34
2016-12-31T00:15:25.433Z,25.31
2016-12-31T00:15:53.633Z,25.27
2016-12-31T00:16:21.797Z,25.31
2016-12-31T00:16:50.025Z,25.3
2016-12-31T00:17:18.330Z,25.26
2016-12-31T00:17:46.600Z,25.3
2016-12-31T00:18:57.974Z,25.18
2016-12-31T00:19:26.079Z,25.18
2016-12-31T00:19:54.335Z,25.3
2016-12-31T00:20:22.540Z,25.21
2016-12-31T00:20:50.766Z,25.22
2016-12-31T00:21:18.904Z,25.26
2016-12-31T00:21:47.199Z,25.31
2016-12-31T00:22:15.547Z,25.22
2016-12-31T00:22:43.769Z,25.16
2016-12-31T00:23:11.982Z,25.26
2016-12-31T00:23:40.248Z,25.27
2016-12-31T00:24:51.442Z,25.23
2016-12-31T00:25:19.726Z,25.16
2016-12-31T00:25:47.794Z,25.18
2016-12-31T00:26:15.806Z,25.09
2016-12-31T00:26:44.033Z,25.04
2016-12-31T00:27:12.262Z,25.09
2016-12-31T00:27:40.549Z,25.06
2016-12-31T00:28:08.800Z,25.14
2016-12-31T00:28:37.029Z,25.08
2016-12-31T00:29:05.235Z,25.06
2016-12-31T00:29:33.318Z,25.12
2016-12-31T00:30:44.597Z,25.06
2016-12-31T00:31:12.905Z,25.09
2016-12-31T00:31:40.894Z,25.06
2016-12-31T00:32:08.998Z,25.12
2016-12-31T00:32:37.341Z,25.11
2016-12-31T00:33:05.569Z,25.11
2016-12-31T00:33:33.765Z,25.15
2016-12-31T00:34:01.921Z,25.09
2016-12-31T00:34:29.961Z,25.16
2016-12-31T00:34:57.892Z,25.12
2016-12-31T00:35:26.254Z,25.12
2016-12-31T00:36:37.538Z,25.08
2016-12-31T00:37:05.821Z,25.09
2016-12-31T00:37:34.076Z,25.09
2016-12-31T00:38:02.278Z,25.08
2016-12-31T00:38:30.407Z,25.08
2016-12-31T00:38:58.553Z,25.11
2016-12-31T00:39:26.840Z,25.12
2016-12-31T00:39:55.091Z,25.04
2016-12-31T00:40:23.224Z,25.12
2016-12-31T00:40:51.250Z,25.14
2016-12-31T00:41:19.421Z,25.06
2016-12-31T00:42:30.533Z,25.11
2016-12-31T00:42:58.817Z,25.08
2016-12-31T00:43:27.083Z,25.09
2016-12-31T00:43:55.285Z,25.11
2016-12-31T00:44:23.509Z,25.09
2016-12-31T00:44:51.643Z,25.08
2016-12-31T00:45:19.843Z,25.06
2016-12-31T00:45:48.086Z,25
2016-12-31T00:46:16.404Z,25.09
2016-12-31T00:46:44.518Z,25.11
2016-12-31T00:47:12.535Z,25.06
2016-12-31T00:48:23.913Z,25.14
2016-12-31T00:48:52.103Z,25.11
2016-12-31T00:49:20.448Z,25.18
2016-12-31T00:49:48.654Z,25.23
2016-12-31T00:50:16.883Z,25.16
2016-12-31T00:50:45.016Z,25.18
2016-12-31T00:51:13.302Z,25.27
2016-12-31T00:51:41.459Z,25.21
2016-12-31T00:52:09.685Z,25.23
2016-12-31T00:52:37.902Z,25.28
2016-12-31T00:53:06.168Z,25.3
2016-12-31T00:54:17.449Z,25.31
2016-12-31T00:54:45.828Z,25.3
2016-12-31T00:55:13.797Z,25.21
2016-12-31T00:55:42.000Z,25.18
2016-12-31T00:56:10.319Z,25.21
2016-12-31T00:56:38.643Z,25.22
2016-12-31T00:57:06.930Z,25.18
2016-12-31T00:57:35.087Z,25.22
2016-12-31T00:58:03.409Z,25.15
2016-12-31T00:58:31.712Z,25.08
2016-12-31T00:58:59.889Z,25.14
2016-12-31T01:00:11.167Z,25.19
2016-12-31T01:00:39.454Z,25.15
2016-12-31T01:01:07.714Z,25.15
2016-12-31T01:01:36.019Z,25.16
2016-12-31T01:02:04.244Z,25.09
2016-12-31T01:02:32.482Z,25.06
2016-12-31T01:03:00.767Z,25.14
2016-12-31T01:03:29.119Z,25.12
2016-12-31T01:03:57.347Z,25.22
2016-12-31T01:04:25.567Z,25.15
2016-12-31T01:04:53.647Z,25.14
2016-12-31T01:06:04.839Z,25.23
2016-12-31T01:06:33.032Z,25.18
2016-12-31T01:07:01.283Z,25.15
2016-12-31T01:07:29.580Z,25.18
2016-12-31T01:07:57.809Z,25.11
2016-12-31T01:08:25.953Z,25.11
2016-12-31T01:08:54.332Z,25.09
2016-12-31T01:09:22.495Z,25.03
2016-12-31T01:09:50.622Z,25.15
2016-12-31T01:10:18.835Z,25.06
2016-12-31T01:10:47.197Z,25.08
2016-12-31T01:11:58.575Z,25
2016-12-31T01:12:26.866Z,25.08
2016-12-31T01:12:55.121Z,25.09
2016-12-31T01:13:23.232Z,25.06
2016-12-31T01:13:51.371Z,24.96
2016-12-31T01:14:19.602Z,25.01
2016-12-31T01:14:47.986Z,25
2016-12-31T01:15:16.140Z,25.16
2016-12-31T01:15:44.368Z,25.04
2016-12-31T01:16:12.586Z,25.14
2016-12-31T01:16:40.682Z,25.09
2016-12-31T01:17:52.077Z,25.09
2016-12-31T01:18:20.086Z,25.12
2016-12-31T01:18:48.439Z,25.04
2016-12-31T01:19:16.744Z,25.12
2016-12-31T01:19:44.629Z,25.08
2016-12-31T01:20:12.783Z,25.08
2016-12-31T01:20:40.982Z,25.04
2016-12-31T01:21:09.156Z,25.04
2016-12-31T01:21:37.290Z,25.04
2016-12-31T01:22:05.595Z,25.11
2016-12-31T01:22:33.860Z,25.03
2016-12-31T01:23:44.960Z,25.06
2016-12-31T01:24:13.063Z,25.04
2016-12-31T01:24:41.325Z,25.09
2016-12-31T01:25:09.535Z,25.08
2016-12-31T01:25:37.886Z,25.11
2016-12-31T01:26:06.120Z,25.11
2016-12-31T01:26:34.514Z,25.08
2016-12-31T01:27:02.868Z,25.04
2016-12-31T01:27:31.096Z,25.01
2016-12-31T01:27:59.314Z,25.03
2016-12-31T01:28:27.586Z,25.14
2016-12-31T01:29:38.872Z,25.21
2016-12-31T01:30:07.268Z,25.15
2016-12-31T01:30:35.430Z,25.14
2016-12-31T01:31:03.543Z,25.09
2016-12-31T01:31:31.694Z,25.16
2016-12-31T01:31:59.741Z,25.15
2016-12-31T01:32:28.151Z,25.15
2016-12-31T01:32:56.327Z,25.06
2016-12-31T01:33:24.465Z,25.11
2016-12-31T01:33:53.137Z,25.09
2016-12-31T01:34:21.506Z,25.15
2016-12-31T01:35:32.895Z,25.16
2016-12-31T01:36:01.277Z,25.18
2016-12-31T01:36:29.630Z,25.09
2016-12-31T01:36:57.930Z,25.21
2016-12-31T01:37:25.973Z,25.12
2016-12-31T01:37:54.037Z,25.08
2016-12-31T01:38:22.328Z,25.14
2016-12-31T01:38:50.668Z,25.14
2016-12-31T01:39:18.897Z,25.15
2016-12-31T01:39:47.020Z,25.09
2016-12-31T01:40:15.377Z,25.15
2016-12-31T01:41:26.512Z,25.15
2016-12-31T01:41:54.801Z,25.15
2016-12-31T01:42:23.073Z,25.14
2016-12-31T01:42:51.278Z,25.12
2016-12-31T01:43:19.316Z,25.22
2016-12-31T01:43:47.365Z,25.16
2016-12-31T01:44:15.471Z,25.19
2016-12-31T01:44:43.818Z,25.18
2016-12-31T01:45:11.860Z,25.09
2016-12-31T01:45:40.080Z,25.03
2016-12-31T01:46:08.347Z,25.06
2016-12-31T01:47:19.445Z,25.06
2016-12-31T01:47:47.830Z,25.04
2016-12-31T01:48:16.183Z,25.14
2016-12-31T01:48:44.209Z,25.06
2016-12-31T01:49:12.436Z,25.04
2016-12-31T01:49:40.674Z,25.11
2016-12-31T01:50:09.062Z,25
2016-12-31T01:50:37.409Z,25.11
2016-12-31T01:51:05.730Z,25.11
2016-12-31T01:51:33.947Z,25.11
2016-12-31T01:52:02.027Z,25.11
2016-12-31T01:53:13.220Z,25.09
2016-12-31T01:53:41.318Z,25.14
2016-12-31T01:54:09.578Z,25.14
2016-12-31T01:54:37.880Z,25.06
2016-12-31T01:55:06.016Z,25.11
2016-12-31T01:55:33.978Z,25.01
2016-12-31T01:56:02.368Z,25.11
2016-12-31T01:56:30.526Z,25.08
2016-12-31T01:56:58.771Z,25.11
2016-12-31T01:57:26.986Z,25.08
2016-12-31T01:57:55.160Z,25.08
2016-12-31T01:59:06.359Z,25.04
2016-12-31T01:59:34.456Z,25.04
2016-12-31T02:00:02.618Z,25.09
2016-12-31T02:00:30.840Z,25.06
2016-12-31T02:00:59.071Z,25.08
2016-12-31T02:01:27.309Z,25.04
2016-12-31T02:01:55.510Z,25.03
2016-12-31T02:02:23.575Z,25.14
2016-12-31T02:02:51.705Z,25.09
2016-12-31T02:03:19.922Z,25.11
2016-12-31T02:03:48.191Z,25.08
2016-12-31T02:04:59.473Z,25.03
2016-12-31T02:05:27.765Z,25.03
2016-12-31T02:05:56.024Z,25.06
2016-12-31T02:06:24.228Z,25.03
2016-12-31T02:06:52.547Z,25.08
2016-12-31T02:07:20.872Z,25.09
2016-12-31T02:07:49.069Z,25.11
2016-12-31T02:08:17.318Z,25.14
2016-12-31T02:08:45.541Z,25.15
2016-12-31T02:09:13.845Z,25.01
2016-12-31T02:09:42.016Z,25
2016-12-31T02:10:53.303Z,25.04
2016-12-31T02:11:21.590Z,25
2016-12-31T02:11:49.752Z,25
2016-12-31T02:12:18.049Z,25.12
2016-12-31T02:12:46.274Z,25.08
2016-12-31T02:13:14.512Z,25.06
2016-12-31T02:13:42.802Z,25.04
2016-12-31T02:14:10.957Z,25.04
2016-12-31T02:14:39.090Z,25.03
2016-12-31T02:15:07.227Z,25
2016-12-31T02:15:35.316Z,24.99
2016-12-31T02:16:46.511Z,24.93
2016-12-31T02:17:14.802Z,24.9
2016-12-31T02:17:43.058Z,24.91
2016-12-31T02:18:11.262Z,24.9
2016-12-31T02:18:39.394Z,24.9
2016-12-31T02:19:07.535Z,24.94
2016-12-31T02:19:35.921Z,24.89
2016-12-31T02:20:04.079Z,24.89
2016-12-31T02:20:32.393Z,24.94
2016-12-31T02:21:00.611Z,24.9
2016-12-31T02:21:28.788Z,24.9
2016-12-31T02:22:40.074Z,24.94
2016-12-31T02:23:08.272Z,24.78
2016-12-31T02:23:36.437Z,24.91
2016-12-31T02:24:04.736Z,24.89
2016-12-31T02:24:33.061Z,24.9
2016-12-31T02:25:01.203Z,24.75
2016-12-31T02:25:29.492Z,24.9
2016-12-31T02:25:57.832Z,24.81
2016-12-31T02:26:26.157Z,24.81
2016-12-31T02:26:54.462Z,24.78
2016-12-31T02:27:22.544Z,24.82
2016-12-31T02:28:33.924Z,24.84
2016-12-31T02:29:02.115Z,24.75
2016-12-31T02:29:30.460Z,24.78
2016-12-31T02:29:58.572Z,24.79
2016-12-31T02:30:26.892Z,24.75
2016-12-31T02:30:55.224Z,24.74
2016-12-31T02:31:23.512Z,24.78
2016-12-31T02:31:51.582Z,24.7
2016-12-31T02:32:19.719Z,24.71
2016-12-31T02:32:48.028Z,24.68
2016-12-31T02:33:16.104Z,24.7
2016-12-31T02:34:27.833Z,24.68
2016-12-31T02:34:56.121Z,24.7
2016-12-31T02:35:24.380Z,24.68
2016-12-31T02:35:52.586Z,24.65
2016-12-31T02:36:20.812Z,24.66
2016-12-31T02:36:48.960Z,24.7
2016-12-31T02:37:17.348Z,24.68
2016-12-31T02:37:45.322Z,24.66
2016-12-31T02:38:13.367Z,24.62
2016-12-31T02:38:41.484Z,24.75
2016-12-31T02:39:09.846Z,24.68
2016-12-31T02:40:21.220Z,24.71
2016-12-31T02:40:49.318Z,24.71
2016-12-31T02:41:17.482Z,24.74
2016-12-31T02:41:46.133Z,24.71
2016-12-31T02:42:14.178Z,24.78
2016-12-31T02:42:42.231Z,24.74
2016-12-31T02:43:10.625Z,24.79
2016-12-31T02:43:38.692Z,24.65
2016-12-31T02:44:06.635Z,24.75
2016-12-31T02:44:34.847Z,24.7
2016-12-31T02:45:03.018Z,24.76
2016-12-31T02:46:14.299Z,24.7
2016-12-31T02:46:42.590Z,24.68
2016-12-31T02:47:10.749Z,24.7
2016-12-31T02:47:38.878Z,24.63
2016-12-31T02:48:07.105Z,24.68
2016-12-31T02:48:35.339Z,24.7
2016-12-31T02:49:03.633Z,24.66
2016-12-31T02:49:31.707Z,24.66
2016-12-31T02:50:00.006Z,24.66
2016-12-31T02:50:28.125Z,24.66
2016-12-31T02:50:56.394Z,24.62
2016-12-31T02:52:07.586Z,24.68
2016-12-31T02:52:35.874Z,24.74
2016-12-31T02:53:04.034Z,24.7
2016-12-31T02:53:32.145Z,24.71
2016-12-31T02:54:00.094Z,24.78
2016-12-31T02:54:28.421Z,24.76
2016-12-31T02:54:56.712Z,24.75
2016-12-31T02:55:24.873Z,24.71
2016-12-31T02:55:53.009Z,24.74
2016-12-31T02:56:21.130Z,24.75
2016-12-31T02:56:49.303Z,24.74
2016-12-31T02:58:00.681Z,24.75
2016-12-31T02:58:28.873Z,24.76
2016-12-31T02:58:57.217Z,24.75
2016-12-31T02:59:25.330Z,24.76
2016-12-31T02:59:53.466Z,24.75
2016-12-31T03:00:21.796Z,24.74
2016-12-31T03:00:50.085Z,24.7
2016-12-31T03:01:18.244Z,24.74
2016-12-31T03:01:46.373Z,24.7
2016-12-31T03:02:14.497Z,24.66
2016-12-31T03:02:42.853Z,24.7
2016-12-31T03:03:54.044Z,24.68
2016-12-31T03:04:22.240Z,24.7
2016-12-31T03:04:50.593Z,24.68
2016-12-31T03:05:18.702Z,24.7
2016-12-31T03:05:47.019Z,24.7
2016-12-31T03:06:15.260Z,24.7
2016-12-31T03:06:43.642Z,24.66
2016-12-31T03:07:11.989Z,24.62
2016-12-31T03:07:40.209Z,24.71
2016-12-31T03:08:08.324Z,24.66
2016-12-31T03:08:36.596Z,24.65
2016-12-31T03:09:47.789Z,24.63
2016-12-31T03:10:15.885Z,24.59
2016-12-31T03:10:43.960Z,24.63
2016-12-31T03:11:12.169Z,24.66
2016-12-31T03:11:40.213Z,24.59
2016-12-31T03:12:08.350Z,24.58
2016-12-31T03:12:36.731Z,24.66
2016-12-31T03:13:04.985Z,24.65
2016-12-31T03:13:33.306Z,24.63
2016-12-31T03:14:01.611Z,24.58
2016-12-31T03:14:29.787Z,24.58
2016-12-31T03:15:41.163Z,24.71
2016-12-31T03:16:09.450Z,24.66
2016-12-31T03:16:37.701Z,24.65
2016-12-31T03:17:05.914Z,24.65
2016-12-31T03:17:34.047Z,24.62
2016-12-31T03:18:02.275Z,24.65
2016-12-31T03:18:30.565Z,24.6
2016-12-31T03:18:58.914Z,24.66
2016-12-31T03:19:27.044Z,24.66
2016-12-31T03:19:55.173Z,24.74
2016-12-31T03:20:23.349Z,24.71
2016-12-31T03:21:34.539Z,24.71
2016-12-31T03:22:02.827Z,24.76
2016-12-31T03:22:30.985Z,24.66
2016-12-31T03:22:59.196Z,24.63
2016-12-31T03:23:27.425Z,24.59
2016-12-31T03:23:55.568Z,24.74
2016-12-31T03:24:23.858Z,24.59
2016-12-31T03:24:52.019Z,24.7
2016-12-31T03:25:20.246Z,24.66
2016-12-31T03:25:48.556Z,24.63
2016-12-31T03:26:16.736Z,24.65
2016-12-31T03:27:27.925Z,24.68
2016-12-31T03:27:56.116Z,24.63
2016-12-31T03:28:24.390Z,24.7
2016-12-31T03:28:52.591Z,24.63
2016-12-31T03:29:20.908Z,24.63
2016-12-31T03:29:48.952Z,24.75
2016-12-31T03:30:17.334Z,24.71
2016-12-31T03:30:45.397Z,24.66
2016-12-31T03:31:13.621Z,24.63
2016-12-31T03:31:41.832Z,24.63
2016-12-31T03:32:10.106Z,24.66
2016-12-31T03:33:21.481Z,24.74
2016-12-31T03:33:49.771Z,24.62
2016-12-31T03:34:18.121Z,24.62
2016-12-31T03:34:46.241Z,24.65
2016-12-31T03:35:14.461Z,24.7
2016-12-31T03:35:42.604Z,24.65
2016-12-31T03:36:10.801Z,24.71
2016-12-31T03:36:39.055Z,24.65
2016-12-31T03:37:07.280Z,24.66
2016-12-31T03:37:35.501Z,24.66
2016-12-31T03:38:03.584Z,24.74
2016-12-31T03:39:14.777Z,24.74
2016-12-31T03:39:42.882Z,24.68
2016-12-31T03:40:10.883Z,24.7
2016-12-31T03:40:39.181Z,24.76
2016-12-31T03:41:07.410Z,24.74
2016-12-31T03:41:35.546Z,24.78
2016-12-31T03:42:03.741Z,24.7
2016-12-31T03:42:32.085Z,24.71
2016-12-31T03:43:00.216Z,24.78
2016-12-31T03:43:28.336Z,24.63
2016-12-31T03:43:56.411Z,24.7
2016-12-31T03:45:07.694Z,24.62
2016-12-31T03:45:35.890Z,24.7
2016-12-31T03:46:03.954Z,24.65
2016-12-31T03:46:32.256Z,24.79
2016-12-31T03:47:00.481Z,24.68
2016-12-31T03:47:28.712Z,24.68
2016-12-31T03:47:57.003Z,24.76
2016-12-31T03:48:25.166Z,24.63
2016-12-31T03:48:53.481Z,24.68
2016-12-31T03:49:21.600Z,24.76
2016-12-31T03:49:49.777Z,24.68
2016-12-31T03:51:00.970Z,24.74
2016-12-31T03:51:29.264Z,24.71
2016-12-31T03:51:57.615Z,24.71
2016-12-31T03:52:25.812Z,24.71
2016-12-31T03:52:54.042Z,24.74
2016-12-31T03:53:22.180Z,24.68
2016-12-31T03:53:50.565Z,24.71
2016-12-31T03:54:18.748Z,24.74
2016-12-31T03:54:46.975Z,24.78
2016-12-31T03:55:15.185Z,24.79
2016-12-31T03:55:43.368Z,24.78
2016-12-31T03:56:54.653Z,24.78
2016-12-31T03:57:22.846Z,24.76
2016-12-31T03:57:50.915Z,24.79
2016-12-31T03:58:19.115Z,24.76
2016-12-31T03:58:47.157Z,24.76
2016-12-31T03:59:15.387Z,24.75
2016-12-31T03:59:43.677Z,24.76
2016-12-31T04:00:11.842Z,24.78
2016-12-31T04:00:40.163Z,24.81
2016-12-31T04:01:08.280Z,24.76
2016-12-31T04:01:36.367Z,24.78
2016-12-31T04:02:47.647Z,24.76
2016-12-31T04:03:15.756Z,24.78
2016-12-31T04:03:44.098Z,24.76
2016-12-31T04:04:12.398Z,24.79
2016-12-31T04:04:40.533Z,24.76
2016-12-31T04:05:08.769Z,24.82
2016-12-31T04:05:36.975Z,24.71
2016-12-31T04:06:05.319Z,24.82
2016-12-31T04:06:33.637Z,24.79
2016-12-31T04:07:01.853Z,24.81
2016-12-31T04:07:30.123Z,24.78
2016-12-31T04:08:41.223Z,24.81
2016-12-31T04:09:09.323Z,24.74
2016-12-31T04:09:37.490Z,24.75
2016-12-31T04:10:05.596Z,24.76
2016-12-31T04:10:33.728Z,24.76
2016-12-31T04:11:01.960Z,24.78
2016-12-31T04:11:30.161Z,24.7
2016-12-31T04:11:58.417Z,24.81
2016-12-31T04:12:26.644Z,24.76
2016-12-31T04:12:54.859Z,24.81
2016-12-31T04:13:23.032Z,24.74
2016-12-31T04:14:34.412Z,24.78
2016-12-31T04:15:02.513Z,24.75
2016-12-31T04:15:30.767Z,24.76
2016-12-31T04:15:58.689Z,24.76
2016-12-31T04:16:26.911Z,24.75
2016-12-31T04:16:55.049Z,24.76
2016-12-31T04:17:23.430Z,24.74
2016-12-31T04:17:51.677Z,24.7
2016-12-31T04:18:19.897Z,24.78
2016-12-31T04:18:47.925Z,24.71
2016-12-31T04:19:16.103Z,24.75
2016-12-31T04:20:27.299Z,24.76
2016-12-31T04:20:55.681Z,24.71
2016-12-31T04:21:23.936Z,24.75
2016-12-31T04:21:52.236Z,24.79
2016-12-31T04:22:20.278Z,24.76
2016-12-31T04:22:48.510Z,24.79
2016-12-31T04:23:16.803Z,24.75
2016-12-31T04:23:45.146Z,24.71
2016-12-31T04:24:13.466Z,24.79
2016-12-31T04:24:41.774Z,24.75
2016-12-31T04:25:09.948Z,24.74
2016-12-31T04:26:21.141Z,24.79
2016-12-31T04:26:49.242Z,24.76
2016-12-31T04:27:17.495Z,24.78
2016-12-31T04:27:45.695Z,24.79
2016-12-31T04:28:14.012Z,24.78
2016-12-31T04:28:41.971Z,24.76
2016-12-31T04:29:10.259Z,24.7
2016-12-31T04:29:38.598Z,24.75
2016-12-31T04:30:06.829Z,24.78
2016-12-31T04:30:35.042Z,24.71
2016-12-31T04:31:03.308Z,24.71
2016-12-31T04:32:14.499Z,24.79
2016-12-31T04:32:42.791Z,24.81
2016-12-31T04:33:10.953Z,24.86
2016-12-31T04:33:39.155Z,24.79
2016-12-31T04:34:07.281Z,24.84
2016-12-31T04:34:35.515Z,24.79
2016-12-31T04:35:03.708Z,24.9
2016-12-31T04:35:31.958Z,24.79
2016-12-31T04:36:00.091Z,24.86
2016-12-31T04:36:28.024Z,24.78
2016-12-31T04:36:56.202Z,24.91
2016-12-31T04:38:07.484Z,24.89
2016-12-31T04:38:35.680Z,24.9
2016-12-31T04:39:04.024Z,24.91
2016-12-31T04:39:32.226Z,24.89
2016-12-31T04:40:00.359Z,24.94
2016-12-31T04:40:28.495Z,24.94
2016-12-31T04:40:56.695Z,24.9
2016-12-31T04:41:24.949Z,24.97
2016-12-31T04:41:53.080Z,24.96
2016-12-31T04:42:21.293Z,24.91
2016-12-31T04:42:49.654Z,24.97
2016-12-31T04:44:00.753Z,24.94
2016-12-31T04:44:28.944Z,24.94
2016-12-31T04:44:57.197Z,24.85
2016-12-31T04:45:25.215Z,24.76
2016-12-31T04:45:53.440Z,24.74
2016-12-31T04:46:21.769Z,24.76
2016-12-31T04:46:50.057Z,24.85
2016-12-31T04:47:18.212Z,24.91
2016-12-31T04:47:46.252Z,24.91
2016-12-31T04:48:14.377Z,24.9
2016-12-31T04:48:42.549Z,24.93
2016-12-31T04:49:53.647Z,24.91
2016-12-31T04:50:21.836Z,24.94
2016-12-31T04:50:50.094Z,24.86
2016-12-31T04:51:18.205Z,24.76
2016-12-31T04:51:46.525Z,24.91
2016-12-31T04:52:14.570Z,24.81
2016-12-31T04:52:42.860Z,24.82
2016-12-31T04:53:11.112Z,24.91
2016-12-31T04:53:39.338Z,24.9
2016-12-31T04:54:07.544Z,24.9
2016-12-31T04:54:35.727Z,24.86
2016-12-31T04:55:47.105Z,24.97
2016-12-31T04:56:15.203Z,24.91
2016-12-31T04:56:43.552Z,24.89
2016-12-31T04:57:11.756Z,24.97
2016-12-31T04:57:40.074Z,24.91
2016-12-31T04:58:08.215Z,25.01
2016-12-31T04:58:36.327Z,24.89
2016-12-31T04:59:04.668Z,24.86
2016-12-31T04:59:32.828Z,24.91
2016-12-31T05:00:00.947Z,24.94
2016-12-31T05:00:29.216Z,24.91
2016-12-31T05:01:40.501Z,24.9
2016-12-31T05:02:08.791Z,24.84
2016-12-31T05:02:37.143Z,24.91
2016-12-31T05:03:05.342Z,24.89
2016-12-31T05:03:33.469Z,24.79
2016-12-31T05:04:01.699Z,24.78
2016-12-31T05:04:29.798Z,24.78
2016-12-31T05:04:58.057Z,24.76
2016-12-31T05:05:26.280Z,24.84
2016-12-31T05:05:54.581Z,24.82
2016-12-31T05:06:22.848Z,24.78
2016-12-31T05:07:34.131Z,24.78
2016-12-31T05:08:02.417Z,24.85
2016-12-31T05:08:30.579Z,24.79
2016-12-31T05:08:58.783Z,24.74
2016-12-31T05:09:26.911Z,24.81
2016-12-31T05:09:55.142Z,24.84
2016-12-31T05:10:23.526Z,24.78
2016-12-31T05:10:51.680Z,24.81
2016-12-31T05:11:19.812Z,24.79
2016-12-31T05:11:47.933Z,24.79
2016-12-31T05:12:16.202Z,24.75
2016-12-31T05:13:27.209Z,24.81
2016-12-31T05:13:55.400Z,24.81
2016-12-31T05:14:23.654Z,24.82
2016-12-31T05:14:51.953Z,24.79
2016-12-31T05:15:20.084Z,24.76
2016-12-31T05:15:48.225Z,24.74
2016-12-31T05:16:16.511Z,24.75
2016-12-31T05:16:44.765Z,24.71
2016-12-31T05:17:12.808Z,24.71
2016-12-31T05:17:41.020Z,24.68
2016-12-31T05:18:09.099Z,24.74
2016-12-31T05:19:20.385Z,24.71
2016-12-31T05:19:48.768Z,24.71
2016-12-31T05:20:17.116Z,24.68
2016-12-31T05:20:45.416Z,24.66
2016-12-31T05:21:13.640Z,24.75
2016-12-31T05:21:41.870Z,24.65
2016-12-31T05:22:10.159Z,24.68
2016-12-31T05:22:38.323Z,24.7
2016-12-31T05:23:06.459Z,24.66
2016-12-31T05:23:34.585Z,24.79
2016-12-31T05:24:02.667Z,24.76
2016-12-31T05:25:13.765Z,24.76
2016-12-31T05:25:42.054Z,24.76
2016-12-31T05:26:10.023Z,24.68
2016-12-31T05:26:38.041Z,24.68
2016-12-31T05:27:06.279Z,24.71
2016-12-31T05:27:34.508Z,24.68
2016-12-31T05:28:02.705Z,24.74
2016-12-31T05:28:30.771Z,24.65
2016-12-31T05:28:59.085Z,24.71
2016-12-31T05:29:27.392Z,24.71
2016-12-31T05:29:55.657Z,24.71
2016-12-31T05:31:06.939Z,24.74
2016-12-31T05:31:35.225Z,24.75
2016-12-31T05:32:03.388Z,24.71
2016-12-31T05:32:31.683Z,24.75
2016-12-31T05:32:59.819Z,24.76
2016-12-31T05:33:28.044Z,24.71
2016-12-31T05:33:56.430Z,24.65
2016-12-31T05:34:24.774Z,24.68
2016-12-31T05:34:53.094Z,24.65
2016-12-31T05:35:21.410Z,24.62
2016-12-31T05:35:49.584Z,24.7
2016-12-31T05:37:00.862Z,24.68
2016-12-31T05:37:29.062Z,24.66
2016-12-31T05:37:57.220Z,24.56
2016-12-31T05:38:25.428Z,24.58
2016-12-31T05:38:53.653Z,24.55
2016-12-31T05:39:21.974Z,24.52
2016-12-31T05:39:50.169Z,24.51
2016-12-31T05:40:18.509Z,24.53
2016-12-31T05:40:46.738Z,24.59
2016-12-31T05:41:14.855Z,24.51
2016-12-31T05:41:43.671Z,24.58
2016-12-31T05:42:54.960Z,24.47
2016-12-31T05:43:23.244Z,24.56
2016-12-31T05:43:51.312Z,24.52
2016-12-31T05:44:19.508Z,24.43
2016-12-31T05:44:47.644Z,24.41
2016-12-31T05:45:15.782Z,24.45
2016-12-31T05:45:44.079Z,24.53
2016-12-31T05:46:12.240Z,24.47
2016-12-31T05:46:40.368Z,24.48
2016-12-31T05:47:08.679Z,24.56
2016-12-31T05:47:36.848Z,24.56
2016-12-31T05:48:47.948Z,24.53
2016-12-31T05:49:16.144Z,24.51
2016-12-31T05:49:44.302Z,24.59
2016-12-31T05:50:12.502Z,24.48
2016-12-31T05:50:40.819Z,24.56
2016-12-31T05:51:08.956Z,24.59
2016-12-31T05:51:37.060Z,24.52
2016-12-31T05:52:05.309Z,24.52
2016-12-31T05:52:33.536Z,24.58
2016-12-31T05:53:01.666Z,24.44
2016-12-31T05:53:29.839Z,24.48
2016-12-31T05:54:41.030Z,24.56
2016-12-31T05:55:09.036Z,24.58
2016-12-31T05:55:37.106Z,24.52
2016-12-31T05:56:05.211Z,24.6
2016-12-31T05:56:33.344Z,24.47
2016-12-31T05:57:01.484Z,24.6
2016-12-31T05:57:29.586Z,24.51
2016-12-31T05:57:57.929Z,24.51
2016-12-31T05:58:26.158Z,24.55
2016-12-31T05:58:54.466Z,24.53
2016-12-31T05:59:22.829Z,24.55
2016-12-31T06:00:34.200Z,24.55
2016-12-31T06:01:02.306Z,24.59
2016-12-31T06:01:30.462Z,24.48
2016-12-31T06:01:58.570Z,24.59
2016-12-31T06:02:26.896Z,24.55
2016-12-31T06:02:55.035Z,24.53
2016-12-31T06:03:23.419Z,24.52
2016-12-31T06:03:51.575Z,24.52
2016-12-31T06:04:19.807Z,24.58
2016-12-31T06:04:47.950Z,24.53
2016-12-31T06:05:16.317Z,24.55
2016-12-31T06:06:27.509Z,24.53
2016-12-31T06:06:55.802Z,24.62
2016-12-31T06:07:24.153Z,24.55
2016-12-31T06:07:52.355Z,24.58
2016-12-31T06:08:20.487Z,24.62
2016-12-31T06:08:48.625Z,24.55
2016-12-31T06:09:17.011Z,24.6
2016-12-31T06:09:45.172Z,24.59
2016-12-31T06:10:13.488Z,24.66
2016-12-31T06:10:41.548Z,24.62
2016-12-31T06:11:09.724Z,24.59
2016-12-31T06:12:20.924Z,24.58
2016-12-31T06:12:49.306Z,24.59
2016-12-31T06:13:18.121Z,24.53
2016-12-31T06:13:46.136Z,24.59
2016-12-31T06:14:14.181Z,24.51
2016-12-31T06:14:42.411Z,24.51
2016-12-31T06:15:10.792Z,24.51
2016-12-31T06:15:39.044Z,24.59
2016-12-31T06:16:07.356Z,24.52
2016-12-31T06:16:35.473Z,24.59
2016-12-31T06:17:03.655Z,24.48
2016-12-31T06:18:14.935Z,24.59
2016-12-31T06:18:43.124Z,24.59
2016-12-31T06:19:11.378Z,24.52
2016-12-31T06:19:39.677Z,24.58
2016-12-31T06:20:07.813Z,24.55
2016-12-31T06:20:36.138Z,24.52
2016-12-31T06:21:04.331Z,24.6
2016-12-31T06:21:32.581Z,24.56
2016-12-31T06:22:00.805Z,24.53
2016-12-31T06:22:29.016Z,24.55
2016-12-31T06:22:57.281Z,24.48
2016-12-31T06:24:08.569Z,24.56
2016-12-31T06:24:36.858Z,24.51
2016-12-31T06:25:05.016Z,24.56
2016-12-31T06:25:33.220Z,24.45
2016-12-31T06:26:01.447Z,24.52
2016-12-31T06:26:29.770Z,24.51
2016-12-31T06:26:58.153Z,24.53
2016-12-31T06:27:26.406Z,24.53
2016-12-31T06:27:54.730Z,24.48
2016-12-31T06:28:23.033Z,24.56
2016-12-31T06:28:51.023Z,24.51
2016-12-31T06:30:02.214Z,24.53
2016-12-31T06:30:30.501Z,24.45
2016-12-31T06:30:58.754Z,24.55
2016-12-31T06:31:26.962Z,24.56
2016-12-31T06:31:55.194Z,24.52
2016-12-31T06:32:23.428Z,24.52
2016-12-31T06:32:51.716Z,24.48
2016-12-31T06:33:19.970Z,24.56
2016-12-31T06:33:48.200Z,24.53
2016-12-31T06:34:16.322Z,24.43
2016-12-31T06:34:44.585Z,24.44
2016-12-31T06:35:55.785Z,24.41
2016-12-31T06:36:24.166Z,24.45
2016-12-31T06:36:52.516Z,24.43
2016-12-31T06:37:20.727Z,24.45
2016-12-31T06:37:48.763Z,24.44
2016-12-31T06:38:16.899Z,24.45
2016-12-31T06:38:45.285Z,24.41
2016-12-31T06:39:13.443Z,24.41
2016-12-31T06:39:41.669Z,24.4
2016-12-31T06:40:09.976Z,24.44
2016-12-31T06:40:38.146Z,24.4
2016-12-31T06:41:49.434Z,24.41
2016-12-31T06:42:17.814Z,24.38
2016-12-31T06:42:46.076Z,24.44
2016-12-31T06:43:14.189Z,24.47
2016-12-31T06:43:42.414Z,24.38
2016-12-31T06:44:10.461Z,24.43
2016-12-31T06:44:38.751Z,24.33
2016-12-31T06:45:07.003Z,24.4
2016-12-31T06:45:35.136Z,24.45
2016-12-31T06:46:03.354Z,24.41
2016-12-31T06:46:31.653Z,24.41
2016-12-31T06:47:42.749Z,24.47
2016-12-31T06:48:11.041Z,24.43
2016-12-31T06:48:39.298Z,24.41
2016-12-31T06:49:07.513Z,24.43
2016-12-31T06:49:35.829Z,24.31
2016-12-31T06:50:04.063Z,24.4
2016-12-31T06:50:32.449Z,24.38
2016-12-31T06:51:00.799Z,24.47
2016-12-31T06:51:28.831Z,24.33
2016-12-31T06:51:57.040Z,24.43
2016-12-31T06:52:25.215Z,24.45
2016-12-31T06:53:36.595Z,24.41
2016-12-31T06:54:04.886Z,24.47
2016-12-31T06:54:33.143Z,24.47
2016-12-31T06:55:01.350Z,24.51
2016-12-31T06:55:29.384Z,24.43